Acorn Park, Oregon
Current Conditions -  °F | °C
As of 8:54 PM on Wednesday 22 Oct 2014 (Local Time) from KEUG Reporting Station
Overcast Overcast  
Wind Chill: 57°   Ceiling: 2200
Heat Index: 57°   Visibility: 10mi
Dew Point: 54°   Wind: 6mph
Humidity: 89%   Direction: 180°S
Pressure: 29.79"   Gusts: NA
Location:  44.0318°N, 123.235°W
Report Text: KEUG 230354Z 18005KT 10SM BKN022 OVC075 14/12 A2979 RMK AO2 SLP087 T01390122
Loading
Personal Weather Stations






























Interactive Weather Map
Tropical Storm Tracking
New forecast layout! Learn more

10-Day Weather Forecast

Advertisements
Track Severe Weather on mobile